Time;durP1;ratioP1;P1;durP2;ratioP2;P2;SDS_P1;SDS_P2;PMS_P1;PMS_P2;Temp;Humidity;BMP_temperature;BMP_pressure;BME280_temperature;BME280_humidity;BME280_pressure;Samples;Min_cycle;Max_cycle;Signal;HPM_P1;HPM_P2
2023/01/04 00:01:18;;;;;;;2.90;1.63;;;2.60;99.90;2.30;101666.00;;;;4908313;28;93962;-62
2023/01/04 00:03:44;;;;;;;1.33;1.27;;;2.60;99.90;2.20;101657.00;;;;4908118;28;98329;-62
2023/01/04 00:06:12;;;;;;;1.47;0.97;;;2.40;99.90;2.10;101660.00;;;;4908713;28;92728;-62
2023/01/04 00:08:38;;;;;;;1.80;1.20;;;2.50;99.90;2.10;101663.00;;;;4912139;28;93095;-62
2023/01/04 00:11:12;;;;;;;3.03;2.07;;;2.30;99.90;2.00;101657.00;;;;4912394;28;110099;-61
2023/01/04 00:13:38;;;;;;;1.57;1.47;;;2.40;99.90;2.00;101646.00;;;;4910318;28;93053;-63
2023/01/04 00:16:09;;;;;;;1.23;1.13;;;2.30;99.90;2.00;101636.00;;;;4906231;28;102794;-62
2023/01/04 00:18:36;;;;;;;1.43;1.33;;;2.30;99.90;1.90;101640.00;;;;4900789;28;92983;-62
2023/01/04 00:21:16;;;;;;;2.97;1.47;;;2.10;99.90;1.90;101641.00;;;;4906147;28;121709;-62
2023/01/04 00:23:45;;;;;;;2.73;1.50;;;2.30;99.90;1.90;101632.00;;;;4889976;28;92888;-62
2023/01/04 00:26:15;;;;;;;4.33;1.83;;;2.20;99.90;1.90;101624.00;;;;4908554;28;103366;-62
2023/01/04 00:28:41;;;;;;;1.57;1.13;;;2.10;99.90;1.90;101625.00;;;;4907224;28;94072;-64
2023/01/04 00:31:10;;;;;;;1.50;1.40;;;2.20;99.90;1.90;101617.00;;;;4904191;28;93844;-62
2023/01/04 00:33:36;;;;;;;1.33;1.23;;;2.20;99.90;1.80;101619.00;;;;4906258;28;116098;-60
2023/01/04 00:36:08;;;;;;;3.23;2.07;;;2.20;99.90;1.90;101612.00;;;;4908295;28;107152;-63
2023/01/04 00:38:35;;;;;;;2.20;1.63;;;2.20;99.90;1.90;101621.00;;;;4906917;28;93034;-62
2023/01/04 00:41:02;;;;;;;1.33;1.23;;;2.20;99.90;1.90;101612.00;;;;4908482;28;116966;-62
2023/01/04 00:43:28;;;;;;;1.67;1.43;;;2.10;99.90;1.90;101613.00;;;;4908835;28;110429;-61
2023/01/04 00:45:54;;;;;;;1.70;1.47;;;2.10;99.90;1.90;101619.00;;;;4906691;28;92337;-61
2023/01/04 00:48:20;;;;;;;1.67;1.40;;;2.10;99.90;1.90;101612.00;;;;4903986;28;93001;-61
2023/01/04 00:50:47;;;;;;;2.23;2.03;;;2.20;99.90;1.80;101612.00;;;;4912092;28;122895;-62
2023/01/04 00:53:14;;;;;;;2.83;2.27;;;2.20;99.90;1.80;101594.00;;;;4919408;28;93960;-62
2023/01/04 00:55:39;;;;;;;2.73;1.67;;;2.10;99.90;1.90;101596.00;;;;4916685;28;99663;-61
2023/01/04 00:58:05;;;;;;;2.23;1.83;;;2.10;99.90;1.90;101599.00;;;;4903205;28;108243;-61
2023/01/04 01:00:32;;;;;;;1.37;1.27;;;2.20;99.90;1.90;101582.00;;;;4904168;28;123552;-62
2023/01/04 01:02:57;;;;;;;1.53;1.43;;;2.20;99.90;2.00;101588.00;;;;4903315;28;116347;-62
2023/01/04 01:05:23;;;;;;;2.83;1.33;;;2.30;99.90;2.10;101579.00;;;;4906377;28;110071;-63
2023/01/04 01:07:48;;;;;;;3.77;2.00;;;2.30;99.90;2.10;101575.00;;;;4905302;28;106977;-63
2023/01/04 01:10:14;;;;;;;1.37;1.27;;;2.40;99.90;2.20;101572.00;;;;4905211;28;120904;-62
2023/01/04 01:12:40;;;;;;;2.00;1.77;;;2.40;99.90;2.20;101572.00;;;;4904377;28;119668;-61
2023/01/04 01:15:06;;;;;;;1.90;1.70;;;2.60;99.90;2.30;101566.00;;;;4909184;28;110136;-62
2023/01/04 01:17:33;;;;;;;1.70;1.60;;;3.00;99.90;2.30;101567.00;;;;4899659;28;93778;-60
2023/01/04 01:19:59;;;;;;;1.53;1.30;;;3.20;99.90;2.40;101560.00;;;;4910612;28;93480;-61
2023/01/04 01:22:25;;;;;;;1.87;1.77;;;2.60;99.90;2.40;101563.00;;;;4910024;28;122738;-62
2023/01/04 01:24:51;;;;;;;2.80;1.90;;;2.60;99.90;2.40;101562.00;;;;4905378;28;110345;-62
2023/01/04 01:27:17;;;;;;;2.87;1.50;;;2.70;99.90;2.50;101554.00;;;;4904228;28;108407;-60
2023/01/04 01:29:43;;;;;;;1.77;1.53;;;2.70;99.90;2.50;101550.00;;;;4905078;28;122786;-63
2023/01/04 01:32:08;;;;;;;1.90;1.70;;;2.80;99.90;2.60;101542.00;;;;4905301;28;120663;-62
2023/01/04 01:34:34;;;;;;;1.20;1.13;;;2.70;99.90;2.60;101542.00;;;;4905458;28;109753;-63
2023/01/04 01:37:01;;;;;;;1.43;1.30;;;2.80;99.90;2.60;101540.00;;;;4907403;28;109073;-63
2023/01/04 01:39:27;;;;;;;1.87;0.60;;;2.80;99.90;2.60;101544.00;;;;4904784;28;94497;-63
2023/01/04 01:41:53;;;;;;;2.00;1.67;;;3.40;99.90;2.70;101533.00;;;;4903703;28;111797;-64
2023/01/04 01:44:40;;;;;;;0.97;0.90;;;2.80;99.90;2.60;101516.00;;;;4899365;28;92961;-62
2023/01/04 01:47:19;;;;;;;1.37;1.20;;;2.90;99.90;2.60;101526.00;;;;4903798;28;93010;-62
2023/01/04 01:49:49;;;;;;;1.27;1.07;;;2.90;99.90;2.70;101523.00;;;;4889973;28;111050;-62
2023/01/04 01:52:21;;;;;;;1.10;0.90;;;2.90;99.90;2.70;101522.00;;;;4889147;28;95435;-63
2023/01/04 01:54:55;;;;;;;1.23;1.13;;;2.90;99.90;2.70;101521.00;;;;4890958;28;93081;-63
2023/01/04 01:57:24;;;;;;;0.73;0.73;;;3.00;99.90;2.70;101527.00;;;;4888617;28;97150;-62
2023/01/04 01:59:55;;;;;;;1.53;1.23;;;2.90;99.90;2.80;101537.00;;;;4909856;28;113938;-62
2023/01/04 02:02:21;;;;;;;1.77;0.90;;;3.00;99.90;2.80;101527.00;;;;4882108;28;93082;-64
2023/01/04 02:04:49;;;;;;;1.30;1.03;;;3.70;99.90;2.90;101523.00;;;;4905361;28;111024;-63
2023/01/04 02:07:20;;;;;;;0.70;0.70;;;3.10;99.90;3.00;101529.00;;;;4904124;28;94256;-63
2023/01/04 02:09:48;;;;;;;2.00;1.10;;;3.20;99.90;3.00;101516.00;;;;4888171;28;116330;-64
2023/01/04 02:12:14;;;;;;;1.00;0.90;;;3.80;99.90;3.10;101524.00;;;;4886292;28;108315;-63
2023/01/04 02:14:43;;;;;;;1.20;1.10;;;3.30;99.90;3.20;101524.00;;;;4906856;28;109613;-63
2023/01/04 02:17:30;;;;;;;2.17;1.13;;;3.40;99.90;3.20;101523.00;;;;4889775;28;94563;-63
2023/01/04 02:20:27;;;;;;;1.33;1.00;;;3.40;99.90;3.20;101520.00;;;;4906468;28;93263;-64
2023/01/04 02:23:21;;;;;;;0.97;0.87;;;3.50;99.90;3.30;101521.00;;;;4903307;28;116232;-62
2023/01/04 02:26:20;;;;;;;1.43;0.80;;;3.60;99.90;3.40;101523.00;;;;4880247;28;94500;-63
2023/01/04 02:29:07;;;;;;;1.13;0.90;;;3.60;99.90;3.50;101506.00;;;;4908333;28;92852;-63
2023/01/04 02:31:56;;;;;;;0.60;0.60;;;3.70;99.90;3.50;101499.00;;;;4902104;28;92950;-63
2023/01/04 02:34:24;;;;;;;1.37;1.23;;;3.80;99.90;3.60;101497.00;;;;4889729;28;93896;-63
2023/01/04 02:37:26;;;;;;;5.20;1.20;;;3.80;99.90;3.60;101490.00;;;;4904315;28;92736;-63
2023/01/04 02:40:05;;;;;;;1.60;0.80;;;3.90;99.90;3.70;101494.00;;;;4904607;28;93227;-64
2023/01/04 02:45:58;;;;;;;1.47;0.90;;;3.90;99.90;3.70;101471.00;;;;4889841;28;93114;-63
2023/01/04 02:51:34;;;;;;;0.70;0.60;;;4.50;99.90;3.70;101461.00;;;;4904200;28;93191;-64
2023/01/04 02:54:06;;;;;;;0.80;0.80;;;4.00;99.90;3.80;101463.00;;;;4906191;28;93466;-62
2023/01/04 02:57:06;;;;;;;1.13;1.00;;;3.90;99.90;3.70;101451.00;;;;4907012;28;94742;-64
2023/01/04 02:59:56;;;;;;;0.57;0.57;;;3.40;99.90;3.70;101444.00;;;;4903907;28;100979;-64
2023/01/04 03:06:15;;;;;;;1.30;0.80;;;4.00;99.90;3.70;101444.00;;;;4888344;28;92947;-63
2023/01/04 03:09:04;;;;;;;0.50;0.37;;;3.90;99.90;3.70;101441.00;;;;4881175;28;93072;-64
2023/01/04 03:14:45;;;;;;;0.93;0.70;;;3.90;99.90;3.60;101417.00;;;;4892087;28;92939;-63
2023/01/04 03:17:13;;;;;;;2.13;1.20;;;4.60;99.90;3.60;101422.00;;;;4885844;28;105314;-63
2023/01/04 03:19:50;;;;;;;2.40;0.77;;;3.90;99.90;3.60;101417.00;;;;4894469;28;121678;-61
2023/01/04 03:37:18;;;;;;;0.70;0.70;;;3.60;99.90;3.40;101381.00;;;;4906181;28;93031;-64
2023/01/04 03:49:13;;;;;;;2.67;1.23;;;3.70;99.90;3.50;101356.00;;;;4906871;28;92839;-64
2023/01/04 03:51:40;;;;;;;1.67;0.70;;;3.70;99.90;3.50;101346.00;;;;4888233;28;92882;-64
2023/01/04 03:54:18;;;;;;;1.10;1.00;;;3.80;99.90;3.60;101344.00;;;;4894651;28;122088;-63
2023/01/04 03:56:45;;;;;;;1.57;0.70;;;3.80;99.90;3.70;101346.00;;;;4893306;28;98767;-63
2023/01/04 03:59:12;;;;;;;0.93;0.93;;;3.80;99.90;3.70;101346.00;;;;4891425;28;104506;-64
2023/01/04 04:01:40;;;;;;;0.80;0.80;;;3.90;99.90;3.70;101348.00;;;;4891981;28;93227;-64
2023/01/04 04:09:34;;;;;;;0.77;0.70;;;4.70;99.90;3.80;101327.00;;;;4908483;28;92830;-66
2023/01/04 04:12:00;;;;;;;2.77;0.77;;;4.00;99.90;3.90;101329.00;;;;4890969;28;121126;-61
2023/01/04 04:14:26;;;;;;;0.57;0.43;;;4.00;99.90;3.90;101318.00;;;;4907842;28;121991;-63
2023/01/04 04:16:51;;;;;;;0.77;0.77;;;4.00;99.90;3.90;101315.00;;;;4911433;28;110482;-62
2023/01/04 04:19:17;;;;;;;1.30;0.73;;;4.10;99.90;3.90;101306.00;;;;4911288;28;108784;-64
2023/01/04 04:21:43;;;;;;;9.03;1.03;;;4.10;99.90;3.90;101299.00;;;;4906441;28;116012;-64
2023/01/04 04:24:18;;;;;;;0.67;0.47;;;4.60;99.90;3.90;101276.00;;;;4906422;28;123624;-64
2023/01/04 04:26:44;;;;;;;1.13;0.80;;;4.10;99.90;3.90;101284.00;;;;4904877;28;92936;-63
2023/01/04 04:29:10;;;;;;;1.90;0.80;;;4.10;99.90;3.90;101283.00;;;;4908277;28;109104;-61
2023/01/04 04:31:36;;;;;;;0.53;0.53;;;4.10;99.90;3.90;101276.00;;;;4907001;28;93656;-63
2023/01/04 04:34:02;;;;;;;0.50;0.50;;;4.10;99.90;3.90;101270.00;;;;4905227;28;122723;-64
2023/01/04 04:36:28;;;;;;;0.63;0.53;;;4.00;99.90;3.80;101264.00;;;;4905819;28;111511;-62
2023/01/04 04:38:53;;;;;;;7.10;3.80;;;4.00;99.90;3.80;101267.00;;;;4909637;28;92830;-65
2023/01/04 04:41:38;;;;;;;5.10;2.67;;;4.90;99.90;3.80;101260.00;;;;4888733;28;121226;-63
2023/01/04 04:44:05;;;;;;;4.37;3.20;;;4.00;99.90;3.80;101261.00;;;;4909032;28;94244;-63
2023/01/04 04:46:31;;;;;;;1.33;1.03;;;4.00;99.90;3.80;101260.00;;;;4906503;28;93015;-62
2023/01/04 04:48:57;;;;;;;1.43;1.20;;;3.90;99.90;3.70;101251.00;;;;4909183;28;108285;-65
2023/01/04 04:51:23;;;;;;;2.63;2.13;;;3.90;99.90;3.70;101244.00;;;;4905549;28;122878;-64
2023/01/04 04:53:48;;;;;;;6.03;0.73;;;4.00;99.90;3.70;101244.00;;;;4906415;28;93005;-65
2023/01/04 04:56:14;;;;;;;1.00;0.90;;;3.90;99.90;3.70;101243.00;;;;4905243;28;110809;-63
2023/01/04 04:58:40;;;;;;;0.93;0.93;;;3.90;99.90;3.70;101242.00;;;;4922746;28;92689;-63
2023/01/04 05:01:06;;;;;;;3.27;1.70;;;3.90;99.90;3.60;101230.00;;;;4923890;28;123309;-65
2023/01/04 05:03:32;;;;;;;2.13;1.43;;;3.80;99.90;3.60;101220.00;;;;4915559;28;120916;-63
2023/01/04 05:05:58;;;;;;;1.43;1.20;;;3.90;99.90;3.60;101212.00;;;;4898398;28;97696;-64
2023/01/04 05:08:24;;;;;;;1.10;1.00;;;3.90;99.90;3.60;101230.00;;;;4904249;28;93044;-64
2023/01/04 05:10:49;;;;;;;1.13;1.03;;;3.90;99.90;3.60;101216.00;;;;4906798;28;122684;-63
2023/01/04 05:13:15;;;;;;;1.57;1.47;;;3.80;99.90;3.70;101202.00;;;;4904478;28;122563;-65
2023/01/04 05:15:46;;;;;;;0.93;0.60;;;3.90;99.90;3.80;101204.00;;;;4904919;28;110945;-65
2023/01/04 05:18:14;;;;;;;0.70;0.70;;;4.00;99.90;3.80;101202.00;;;;4906855;28;92923;-66
2023/01/04 05:20:40;;;;;;;1.17;1.07;;;3.90;99.90;3.80;101202.00;;;;4904466;28;94030;-64
2023/01/04 05:23:07;;;;;;;0.70;0.70;;;4.00;99.90;3.80;101202.00;;;;4890042;28;120819;-64
2023/01/04 05:25:33;;;;;;;1.00;0.73;;;4.10;99.90;3.90;101190.00;;;;4908762;28;92944;-64
2023/01/04 05:27:59;;;;;;;0.70;0.60;;;4.90;99.90;4.00;101182.00;;;;4903938;28;92974;-63
2023/01/04 05:33:10;;;;;;;0.97;0.87;;;4.20;99.90;4.20;101157.00;;;;4903626;28;92968;-65
2023/01/04 05:35:36;;;;;;;1.17;1.00;;;4.30;99.90;4.30;101158.00;;;;4907174;28;111247;-63
2023/01/04 05:38:02;;;;;;;0.80;0.63;;;4.40;99.90;4.30;101156.00;;;;4905363;28;99840;-64
2023/01/04 05:40:28;;;;;;;0.90;0.73;;;4.40;99.90;4.40;101168.00;;;;4903739;28;93970;-64
2023/01/04 05:42:53;;;;;;;1.27;0.97;;;4.60;99.90;4.50;101155.00;;;;4904952;28;101162;-63
2023/01/04 05:45:20;;;;;;;1.33;0.90;;;4.70;99.90;4.60;101156.00;;;;4904332;28;110919;-63
2023/01/04 05:47:49;;;;;;;1.20;0.80;;;4.90;99.90;4.60;101140.00;;;;4904797;28;92945;-65
2023/01/04 05:50:15;;;;;;;0.70;0.70;;;4.70;99.90;4.70;101144.00;;;;4892438;28;93684;-63
2023/01/04 05:52:41;;;;;;;0.70;0.70;;;4.80;99.90;4.70;101140.00;;;;4905329;28;96756;-62
2023/01/04 05:55:08;;;;;;;1.90;0.90;;;4.90;99.90;4.80;101141.00;;;;4905699;28;111130;-63
2023/01/04 05:57:33;;;;;;;3.53;1.20;;;4.90;99.90;4.90;101139.00;;;;4906738;28;92791;-63
2023/01/04 05:59:59;;;;;;;1.27;0.73;;;4.90;99.90;4.90;101133.00;;;;4907083;28;123976;-63
2023/01/04 06:02:29;;;;;;;1.17;0.77;;;5.20;99.90;5.00;101132.00;;;;4904923;28;122437;-65
2023/01/04 06:04:55;;;;;;;0.63;0.60;;;5.10;99.90;5.10;101123.00;;;;4905602;28;92923;-63
2023/01/04 06:07:22;;;;;;;0.60;0.60;;;5.30;99.90;5.10;101121.00;;;;4905859;28;92867;-62
2023/01/04 06:09:47;;;;;;;1.17;0.63;;;5.20;99.90;5.20;101119.00;;;;4905842;28;99257;-63
2023/01/04 06:12:13;;;;;;;1.13;0.60;;;5.40;99.90;5.20;101116.00;;;;4906232;28;114037;-65
2023/01/04 06:14:39;;;;;;;0.67;0.60;;;5.40;99.90;5.20;101106.00;;;;4904792;28;110269;-64
2023/01/04 06:17:05;;;;;;;1.37;0.97;;;5.30;99.90;5.30;101107.00;;;;4909560;28;108795;-64
2023/01/04 06:19:31;;;;;;;1.83;1.00;;;5.40;99.90;5.30;101087.00;;;;4909146;28;92917;-64
2023/01/04 06:21:57;;;;;;;1.27;1.17;;;6.30;99.90;5.40;101090.00;;;;4907886;28;111920;-64
2023/01/04 06:24:22;;;;;;;0.80;0.80;;;6.20;99.90;5.40;101091.00;;;;4903671;28;111588;-63
2023/01/04 06:26:48;;;;;;;0.80;0.80;;;5.50;99.90;5.40;101065.00;;;;4903617;28;108764;-65
2023/01/04 06:29:14;;;;;;;0.80;0.77;;;5.50;99.90;5.40;101079.00;;;;4904618;28;123420;-63
2023/01/04 06:31:41;;;;;;;1.33;0.63;;;6.30;99.90;5.40;101078.00;;;;4904684;28;123045;-63
2023/01/04 06:34:06;;;;;;;0.87;0.87;;;5.80;99.90;5.40;101070.00;;;;4903959;28;111451;-64
2023/01/04 06:36:34;;;;;;;2.43;1.07;;;5.50;99.90;5.40;101068.00;;;;4900906;28;107852;-65
2023/01/04 06:39:00;;;;;;;0.60;0.60;;;5.50;99.90;5.40;101069.00;;;;4903307;28;94235;-64
2023/01/04 06:41:26;;;;;;;1.93;1.03;;;6.40;99.90;5.40;101069.00;;;;4899538;28;122158;-65
2023/01/04 06:43:52;;;;;;;1.27;0.77;;;6.40;99.90;5.40;101051.00;;;;4904324;28;111300;-65
2023/01/04 06:46:18;;;;;;;2.40;1.33;;;6.30;99.90;5.40;101049.00;;;;4904889;28;92991;-64
2023/01/04 06:48:43;;;;;;;1.30;0.90;;;6.00;99.90;5.30;101059.00;;;;4902965;28;112524;-64
2023/01/04 06:51:09;;;;;;;2.93;1.37;;;5.50;99.90;5.30;101043.00;;;;4905846;28;121310;-64
2023/01/04 06:53:35;;;;;;;1.00;0.70;;;5.50;99.90;5.30;101050.00;;;;4907587;28;93010;-64
2023/01/04 06:56:01;;;;;;;1.70;1.17;;;5.60;99.90;5.30;101045.00;;;;4904570;28;108762;-64
2023/01/04 06:58:26;;;;;;;2.23;1.23;;;5.50;99.90;5.30;101041.00;;;;4904757;28;95125;-63
2023/01/04 07:00:53;;;;;;;1.70;0.93;;;5.40;99.90;5.20;101034.00;;;;4904389;28;123921;-64
2023/01/04 07:03:18;;;;;;;2.93;1.23;;;5.40;99.90;5.20;101036.00;;;;4904114;28;98857;-63
2023/01/04 07:05:44;;;;;;;2.70;1.30;;;5.30;99.90;5.20;101028.00;;;;4905308;28;92943;-62
2023/01/04 07:08:11;;;;;;;1.33;1.07;;;5.30;99.90;5.20;101037.00;;;;4902833;28;92450;-64
2023/01/04 07:10:37;;;;;;;2.40;1.23;;;5.40;99.90;5.20;101022.00;;;;4906800;28;93114;-64
2023/01/04 07:13:03;;;;;;;1.43;0.80;;;5.40;99.90;5.30;101033.00;;;;4906708;28;93044;-64
2023/01/04 07:15:29;;;;;;;1.27;1.17;;;5.40;99.90;5.20;101021.00;;;;4905417;28;93806;-65
2023/01/04 07:17:55;;;;;;;1.30;1.10;;;5.30;99.90;5.30;101008.00;;;;4905741;28;121982;-64
2023/01/04 07:20:20;;;;;;;1.90;0.90;;;5.50;99.90;5.30;101019.00;;;;4902904;28;122035;-64
2023/01/04 07:22:46;;;;;;;2.33;1.43;;;5.60;99.90;5.30;101002.00;;;;4907311;28;111483;-65
2023/01/04 07:25:12;;;;;;;1.67;1.57;;;5.40;99.90;5.30;101003.00;;;;4902350;28;109223;-63
2023/01/04 07:27:37;;;;;;;1.83;1.10;;;5.40;99.90;5.30;100994.00;;;;4902126;28;93052;-65
2023/01/04 07:30:04;;;;;;;1.53;1.27;;;5.50;99.90;5.30;100990.00;;;;4901670;28;121697;-64
2023/01/04 07:32:29;;;;;;;1.63;1.30;;;5.50;99.90;5.30;100980.00;;;;4904014;28;92143;-64
2023/01/04 07:34:55;;;;;;;1.83;1.30;;;5.60;99.90;5.30;100977.00;;;;4904728;28;102557;-65
2023/01/04 07:37:21;;;;;;;1.43;1.10;;;6.10;99.90;5.40;100973.00;;;;4901066;28;94022;-64
2023/01/04 07:39:47;;;;;;;0.77;0.73;;;5.50;99.90;5.40;100973.00;;;;4906044;28;122282;-64
2023/01/04 07:42:13;;;;;;;1.50;0.97;;;5.50;99.90;5.50;100967.00;;;;4904303;28;92916;-63
2023/01/04 07:44:39;;;;;;;6.90;1.13;;;5.60;99.90;5.60;100979.00;;;;4902048;28;108912;-64
2023/01/04 07:47:06;;;;;;;1.47;0.63;;;6.10;99.90;5.60;100968.00;;;;4902873;28;94011;-63
2023/01/04 07:49:32;;;;;;;1.03;0.70;;;5.60;99.90;5.70;100974.00;;;;4905133;28;121308;-63
2023/01/04 07:51:57;;;;;;;1.07;0.60;;;5.80;99.90;5.80;100985.00;;;;4903266;28;92739;-62
2023/01/04 07:54:23;;;;;;;2.40;1.00;;;5.80;99.90;5.90;100979.00;;;;4903944;28;107689;-64
2023/01/04 07:56:50;;;;;;;0.73;0.70;;;6.00;99.90;6.00;100985.00;;;;4903773;28;122512;-64
2023/01/04 07:59:18;;;;;;;1.90;1.03;;;6.10;99.90;6.10;100985.00;;;;4901928;28;92945;-63
2023/01/04 08:01:43;;;;;;;1.77;0.90;;;6.20;99.90;6.20;100983.00;;;;4906381;28;92928;-64
2023/01/04 08:04:11;;;;;;;0.80;0.50;;;6.30;99.90;6.30;100978.00;;;;4902591;28;109011;-63
2023/01/04 08:06:38;;;;;;;0.83;0.63;;;6.40;99.90;6.40;100976.00;;;;4905028;28;94465;-63
2023/01/04 08:09:05;;;;;;;0.83;0.70;;;6.50;99.90;6.40;100975.00;;;;4903731;28;93142;-64
2023/01/04 08:11:31;;;;;;;0.70;0.70;;;6.60;99.90;6.50;100970.00;;;;4907086;28;103339;-63
2023/01/04 08:13:56;;;;;;;1.90;0.90;;;7.20;99.90;6.40;100965.00;;;;4906852;28;93092;-64
2023/01/04 08:16:35;;;;;;;1.03;0.70;;;7.30;99.90;6.40;100956.00;;;;4902573;28;124510;-63
2023/01/04 08:19:11;;;;;;;1.37;1.07;;;6.60;99.90;6.30;100951.00;;;;4899718;28;114315;-66
2023/01/04 08:21:37;;;;;;;1.17;0.70;;;6.50;99.90;6.30;100951.00;;;;4905213;28;92381;-65
2023/01/04 08:24:04;;;;;;;2.07;1.10;;;6.50;99.90;6.20;100939.00;;;;4904153;28;107814;-62
2023/01/04 08:26:30;;;;;;;1.33;1.07;;;6.40;99.90;6.20;100930.00;;;;4902014;28;93829;-64
2023/01/04 08:28:56;;;;;;;3.20;0.90;;;6.40;99.90;6.10;100938.00;;;;4901356;28;93758;-65
2023/01/04 08:31:25;;;;;;;1.20;0.77;;;6.60;99.90;6.10;100923.00;;;;4907527;28;92922;-65
2023/01/04 08:33:52;;;;;;;0.83;0.63;;;6.20;99.90;6.00;100925.00;;;;4905775;28;93308;-65
2023/01/04 08:36:30;;;;;;;0.90;0.80;;;6.10;99.90;6.00;100924.00;;;;4907492;28;94088;-64
2023/01/04 08:38:59;;;;;;;0.47;0.37;;;6.20;99.90;5.90;100914.00;;;;4908871;28;94837;-65
2023/01/04 08:41:24;;;;;;;2.60;1.07;;;6.50;99.90;5.90;100902.00;;;;4907512;28;93213;-63
2023/01/04 08:43:50;;;;;;;1.37;0.87;;;6.10;99.90;5.90;100900.00;;;;4902601;28;109304;-65
2023/01/04 08:46:16;;;;;;;1.17;0.97;;;6.60;99.90;5.80;100894.00;;;;4903249;28;103011;-65
2023/01/04 08:48:42;;;;;;;1.60;1.03;;;5.50;99.90;5.80;100897.00;;;;4904457;28;120474;-64
2023/01/04 08:51:12;;;;;;;1.97;1.03;;;6.70;99.90;5.80;100892.00;;;;4903705;28;110450;-66
2023/01/04 08:53:38;;;;;;;0.60;0.60;;;6.50;99.90;5.80;100891.00;;;;4871152;28;96177;-65
2023/01/04 08:56:05;;;;;;;1.53;0.70;;;6.00;99.90;5.80;100881.00;;;;4904659;28;112981;-64
2023/01/04 08:58:31;;;;;;;0.63;0.63;;;6.00;99.90;5.80;100870.00;;;;4909058;28;93083;-63
2023/01/04 09:01:02;;;;;;;0.47;0.47;;;6.60;99.90;5.80;100866.00;;;;4903189;28;110865;-64
2023/01/04 09:03:29;;;;;;;0.93;0.87;;;6.30;99.90;5.80;100871.00;;;;4906782;28;93450;-65
2023/01/04 09:06:05;;;;;;;0.73;0.73;;;6.00;99.90;5.80;100864.00;;;;4921528;28;93357;-65
2023/01/04 09:08:32;;;;;;;0.40;0.40;;;6.00;99.90;5.80;100856.00;;;;4903140;28;94187;-64
2023/01/04 09:11:10;;;;;;;3.03;0.43;;;5.90;99.90;5.80;100870.00;;;;4908424;28;92273;-63
2023/01/04 09:13:36;;;;;;;0.67;0.53;;;5.90;99.90;5.80;100869.00;;;;4905023;28;101169;-63
2023/01/04 09:16:05;;;;;;;2.00;0.67;;;6.60;99.90;5.80;100864.00;;;;4899983;28;122241;-62
2023/01/04 09:18:32;;;;;;;0.50;0.50;;;6.00;99.90;5.90;100856.00;;;;4901985;28;93934;-65
2023/01/04 09:21:00;;;;;;;0.60;0.43;;;6.70;99.90;5.90;100847.00;;;;4904455;28;92849;-64
2023/01/04 09:23:27;;;;;;;0.60;0.50;;;6.30;99.90;5.90;100850.00;;;;4902973;28;93002;-65
2023/01/04 09:25:53;;;;;;;1.20;0.67;;;6.00;99.90;5.90;100825.00;;;;4904738;28;94001;-64
2023/01/04 09:28:19;;;;;;;1.23;0.60;;;6.00;99.90;5.90;100826.00;;;;4904475;28;111377;-63
2023/01/04 09:30:45;;;;;;;4.23;0.73;;;6.80;99.90;6.00;100819.00;;;;4903893;28;93116;-63
2023/01/04 09:33:11;;;;;;;0.93;0.40;;;6.10;99.90;6.00;100820.00;;;;4904596;28;93834;-63
2023/01/04 09:35:36;;;;;;;0.40;0.40;;;6.00;99.90;6.00;100816.00;;;;4903259;28;92392;-63
2023/01/04 09:38:02;;;;;;;0.30;0.30;;;6.10;99.90;6.10;100832.00;;;;4903448;28;106650;-65
2023/01/04 09:40:50;;;;;;;0.50;0.50;;;6.20;99.90;6.10;100850.00;;;;4886680;28;93158;-64
2023/01/04 09:43:20;;;;;;;1.60;0.70;;;6.90;99.90;6.10;100832.00;;;;4879196;28;100980;-64
2023/01/04 09:45:48;;;;;;;0.73;0.50;;;6.30;99.90;6.20;100843.00;;;;4902748;28;121942;-64
2023/01/04 09:48:20;;;;;;;0.77;0.57;;;6.30;99.90;6.30;100819.00;;;;4888208;28;112197;-64
2023/01/04 09:50:54;;;;;;;0.40;0.40;;;7.00;99.90;6.30;100794.00;;;;4902634;28;93140;-66
2023/01/04 09:53:27;;;;;;;0.50;0.50;;;6.70;99.90;6.30;100783.00;;;;4887221;28;93360;-64
2023/01/04 09:56:01;;;;;;;0.43;0.43;;;6.50;99.90;6.40;100784.00;;;;4901555;28;94032;-64
2023/01/04 09:58:35;;;;;;;0.50;0.30;;;7.10;99.90;6.40;100790.00;;;;4888376;28;113234;-62
2023/01/04 10:01:06;;;;;;;0.40;0.40;;;6.60;99.90;6.50;100796.00;;;;4885111;28;93833;-63
2023/01/04 10:03:37;;;;;;;0.53;0.40;;;7.10;99.90;6.50;100780.00;;;;4880870;28;93105;-62
2023/01/04 10:06:05;;;;;;;1.17;0.83;;;7.20;99.90;6.60;100768.00;;;;4885526;28;93743;-61
2023/01/04 10:08:31;;;;;;;0.37;0.30;;;6.70;99.90;6.60;100777.00;;;;4885158;28;94492;-62
2023/01/04 10:11:26;;;;;;;0.40;0.37;;;7.50;99.90;6.60;100772.00;;;;4903574;28;92932;-62
2023/01/04 10:14:00;;;;;;;0.53;0.50;;;6.70;99.90;6.70;100749.00;;;;4904801;28;93124;-63
2023/01/04 10:16:37;;;;;;;1.53;0.67;;;6.80;99.90;6.80;100754.00;;;;4901086;28;93089;-62
2023/01/04 10:19:37;;;;;;;1.83;0.70;;;7.00;99.90;6.80;100740.00;;;;4910157;28;93334;-61
2023/01/04 10:22:17;;;;;;;0.47;0.47;;;6.90;99.90;6.80;100741.00;;;;4876436;28;92815;-62
2023/01/04 10:25:30;;;;;;;3.40;0.40;;;7.00;99.90;6.90;100729.00;;;;4902737;28;93159;-62
2023/01/04 10:28:47;;;;;;;0.63;0.63;;;7.10;99.90;7.00;100748.00;;;;4888010;28;92971;-63
2023/01/04 10:31:19;;;;;;;1.10;0.70;;;7.10;99.90;7.00;100743.00;;;;4906317;28;93081;-63
2023/01/04 10:33:50;;;;;;;0.60;0.40;;;7.20;99.90;7.00;100736.00;;;;4881182;28;93001;-63
2023/01/04 10:36:22;;;;;;;0.83;0.50;;;7.40;99.90;7.00;100715.00;;;;4882982;28;94370;-62
2023/01/04 10:39:03;;;;;;;0.53;0.40;;;7.60;99.90;7.00;100705.00;;;;4902275;28;92972;-62
2023/01/04 10:41:36;;;;;;;0.40;0.40;;;7.40;99.90;7.00;100707.00;;;;4904572;28;92940;-62
2023/01/04 10:44:26;;;;;;;0.57;0.50;;;7.10;99.90;7.00;100692.00;;;;4887137;28;103680;-60
2023/01/04 10:47:14;;;;;;;2.83;0.50;;;7.10;99.90;7.00;100703.00;;;;4902745;28;93047;-63
2023/01/04 10:49:53;;;;;;;0.30;0.30;;;7.20;99.90;7.00;100692.00;;;;4885950;28;115206;-61
2023/01/04 10:52:33;;;;;;;2.93;0.90;;;7.20;99.90;7.10;100690.00;;;;4887176;28;93742;-61
2023/01/04 10:55:04;;;;;;;0.50;0.50;;;7.20;99.90;7.20;100670.00;;;;4897337;28;104360;-62
2023/01/04 10:57:41;;;;;;;0.83;0.47;;;7.30;99.90;7.20;100676.00;;;;4880006;28;93098;-61
2023/01/04 11:00:21;;;;;;;0.23;0.23;;;7.30;99.90;7.30;100674.00;;;;4902372;28;114810;-61
2023/01/04 11:03:01;;;;;;;0.70;0.43;;;7.40;99.90;7.40;100648.00;;;;4877716;28;112825;-62
2023/01/04 11:05:40;;;;;;;1.03;0.60;;;7.60;99.90;7.50;100654.00;;;;4868542;28;101703;-62
2023/01/04 11:08:20;;;;;;;0.67;0.47;;;7.60;99.90;7.60;100655.00;;;;4885205;28;102029;-62
2023/01/04 11:11:04;;;;;;;0.57;0.27;;;7.70;99.90;7.70;100645.00;;;;4905075;28;93759;-60
2023/01/04 11:13:30;;;;;;;0.13;0.13;;;7.90;99.90;7.90;100647.00;;;;4898456;28;92995;-62
2023/01/04 11:15:56;;;;;;;0.40;0.40;;;7.90;99.90;7.90;100639.00;;;;4903476;28;93036;-61
2023/01/04 11:18:22;;;;;;;1.60;0.37;;;8.00;99.90;8.00;100627.00;;;;4886043;28;93002;-63
2023/01/04 11:20:48;;;;;;;0.83;0.37;;;8.10;99.90;8.10;100639.00;;;;4901796;28;120503;-62
2023/01/04 11:23:17;;;;;;;1.37;0.33;;;8.10;99.90;8.10;100599.00;;;;4901378;28;93133;-62
2023/01/04 11:25:53;;;;;;;0.30;0.30;;;8.20;99.90;8.20;100599.00;;;;4904002;28;101834;-62
2023/01/04 11:28:39;;;;;;;0.50;0.50;;;8.30;99.90;8.20;100603.00;;;;4879416;28;95427;-63
2023/01/04 11:31:08;;;;;;;0.30;0.30;;;8.30;99.90;8.20;100591.00;;;;4899839;28;103383;-63
2023/01/04 11:34:01;;;;;;;2.53;0.50;;;8.30;99.90;8.20;100594.00;;;;4903889;28;93061;-62
2023/01/04 11:36:29;;;;;;;0.50;0.50;;;8.30;99.90;8.20;100597.00;;;;4884593;28;92936;-63
2023/01/04 11:38:56;;;;;;;0.97;0.60;;;8.40;99.90;8.30;100607.00;;;;4905027;28;109034;-63
2023/01/04 11:41:23;;;;;;;0.63;0.40;;;8.30;99.90;8.40;100624.00;;;;4905871;28;93701;-63
2023/01/04 11:44:02;;;;;;;0.60;0.33;;;8.50;99.90;8.40;100613.00;;;;4907555;28;116728;-63
2023/01/04 11:46:30;;;;;;;0.30;0.30;;;8.50;99.90;8.40;100602.00;;;;4909599;28;92357;-63
2023/01/04 11:48:56;;;;;;;0.40;0.40;;;8.50;99.90;8.30;100588.00;;;;4903349;28;93387;-63
2023/01/04 11:51:28;;;;;;;0.73;0.30;;;8.50;99.90;8.30;100592.00;;;;4887625;28;92999;-63
2023/01/04 11:54:03;;;;;;;0.40;0.33;;;8.40;99.90;8.20;100591.00;;;;4904479;28;93872;-64
2023/01/04 11:56:35;;;;;;;0.60;0.40;;;8.40;99.90;8.10;100575.00;;;;4904760;28;93389;-63